sensor_id;sensor_type;location;lat;lon;timestamp;temperature;humidity
59572;DHT22;59406;45.602;11.904;2022-12-04T00:01:04;11.50;93.10
59572;DHT22;59406;45.602;11.904;2022-12-04T00:03:31;11.50;93.00
59572;DHT22;59406;45.602;11.904;2022-12-04T00:06:18;11.50;93.10
59572;DHT22;59406;45.602;11.904;2022-12-04T00:08:46;11.60;93.00
59572;DHT22;59406;45.602;11.904;2022-12-04T00:11:14;11.60;92.70
59572;DHT22;59406;45.602;11.904;2022-12-04T00:13:41;11.60;92.60
59572;DHT22;59406;45.602;11.904;2022-12-04T00:16:10;11.60;92.60
59572;DHT22;59406;45.602;11.904;2022-12-04T00:18:37;11.60;92.60
59572;DHT22;59406;45.602;11.904;2022-12-04T00:21:08;11.70;92.50
59572;DHT22;59406;45.602;11.904;2022-12-04T00:23:35;11.60;92.50
59572;DHT22;59406;45.602;11.904;2022-12-04T00:26:06;11.60;92.50
59572;DHT22;59406;45.602;11.904;2022-12-04T00:28:33;11.70;92.40
59572;DHT22;59406;45.602;11.904;2022-12-04T00:31:02;11.70;92.10
59572;DHT22;59406;45.602;11.904;2022-12-04T00:33:29;11.70;92.10
59572;DHT22;59406;45.602;11.904;2022-12-04T00:35:59;11.80;92.20
59572;DHT22;59406;45.602;11.904;2022-12-04T00:38:26;11.80;92.00
59572;DHT22;59406;45.602;11.904;2022-12-04T00:40:53;11.70;91.90
59572;DHT22;59406;45.602;11.904;2022-12-04T00:43:19;11.90;91.60
59572;DHT22;59406;45.602;11.904;2022-12-04T00:45:45;11.80;91.70
59572;DHT22;59406;45.602;11.904;2022-12-04T00:48:11;11.80;91.40
59572;DHT22;59406;45.602;11.904;2022-12-04T00:50:37;11.90;91.50
59572;DHT22;59406;45.602;11.904;2022-12-04T00:53:03;11.90;91.20
59572;DHT22;59406;45.602;11.904;2022-12-04T00:55:29;11.80;91.10
59572;DHT22;59406;45.602;11.904;2022-12-04T00:57:55;11.70;90.90
59572;DHT22;59406;45.602;11.904;2022-12-04T01:00:21;11.90;91.00
59572;DHT22;59406;45.602;11.904;2022-12-04T01:02:47;12.00;90.60
59572;DHT22;59406;45.602;11.904;2022-12-04T01:05:13;11.80;90.50
59572;DHT22;59406;45.602;11.904;2022-12-04T01:07:38;12.10;90.80
59572;DHT22;59406;45.602;11.904;2022-12-04T01:10:07;11.80;90.90
59572;DHT22;59406;45.602;11.904;2022-12-04T01:12:34;11.80;90.90
59572;DHT22;59406;45.602;11.904;2022-12-04T01:14:59;12.00;90.70
59572;DHT22;59406;45.602;11.904;2022-12-04T01:17:25;11.90;90.60
59572;DHT22;59406;45.602;11.904;2022-12-04T01:19:52;11.90;90.60
59572;DHT22;59406;45.602;11.904;2022-12-04T01:22:18;12.00;90.50
59572;DHT22;59406;45.602;11.904;2022-12-04T01:24:43;12.00;90.60
59572;DHT22;59406;45.602;11.904;2022-12-04T01:27:09;12.10;90.70
59572;DHT22;59406;45.602;11.904;2022-12-04T01:29:36;12.10;90.30
59572;DHT22;59406;45.602;11.904;2022-12-04T01:32:03;12.00;90.40
59572;DHT22;59406;45.602;11.904;2022-12-04T01:34:29;12.10;90.30
59572;DHT22;59406;45.602;11.904;2022-12-04T01:36:55;12.10;90.20
59572;DHT22;59406;45.602;11.904;2022-12-04T01:39:21;12.00;90.30
59572;DHT22;59406;45.602;11.904;2022-12-04T01:41:47;12.10;90.30
59572;DHT22;59406;45.602;11.904;2022-12-04T01:46:50;12.30;90.30
59572;DHT22;59406;45.602;11.904;2022-12-04T01:49:38;12.20;90.10
59572;DHT22;59406;45.602;11.904;2022-12-04T01:52:13;12.30;90.30
59572;DHT22;59406;45.602;11.904;2022-12-04T01:54:44;12.30;90.10
59572;DHT22;59406;45.602;11.904;2022-12-04T01:57:12;12.40;90.20
59572;DHT22;59406;45.602;11.904;2022-12-04T02:00:00;12.40;90.10
59572;DHT22;59406;45.602;11.904;2022-12-04T02:02:32;12.30;90.20
59572;DHT22;59406;45.602;11.904;2022-12-04T02:05:00;12.40;90.20
59572;DHT22;59406;45.602;11.904;2022-12-04T02:07:28;12.40;90.30
59572;DHT22;59406;45.602;11.904;2022-12-04T02:09:54;12.30;90.20
59572;DHT22;59406;45.602;11.904;2022-12-04T02:12:44;12.30;90.20
59572;DHT22;59406;45.602;11.904;2022-12-04T02:15:25;12.40;90.20
59572;DHT22;59406;45.602;11.904;2022-12-04T02:31:06;12.40;90.10
59572;DHT22;59406;45.602;11.904;2022-12-04T02:33:46;12.50;90.30
59572;DHT22;59406;45.602;11.904;2022-12-04T02:36:20;12.50;90.20
59572;DHT22;59406;45.602;11.904;2022-12-04T02:39:09;12.50;90.10
59572;DHT22;59406;45.602;11.904;2022-12-04T02:41:42;12.50;90.20
59572;DHT22;59406;45.602;11.904;2022-12-04T02:44:29;12.40;90.20
59572;DHT22;59406;45.602;11.904;2022-12-04T02:46:59;12.40;90.10
59572;DHT22;59406;45.602;11.904;2022-12-04T02:49:34;12.50;90.20
59572;DHT22;59406;45.602;11.904;2022-12-04T02:52:02;12.40;90.00
59572;DHT22;59406;45.602;11.904;2022-12-04T02:54:35;12.60;90.30
59572;DHT22;59406;45.602;11.904;2022-12-04T02:57:05;12.50;90.20
59572;DHT22;59406;45.602;11.904;2022-12-04T02:59:41;12.60;90.50
59572;DHT22;59406;45.602;11.904;2022-12-04T03:02:44;12.50;90.60
59572;DHT22;59406;45.602;11.904;2022-12-04T03:05:21;12.40;90.70
59572;DHT22;59406;45.602;11.904;2022-12-04T03:07:53;12.50;90.80
59572;DHT22;59406;45.602;11.904;2022-12-04T03:10:44;12.50;90.90
59572;DHT22;59406;45.602;11.904;2022-12-04T03:13:18;12.40;90.90
59572;DHT22;59406;45.602;11.904;2022-12-04T03:15:53;12.50;90.90
59572;DHT22;59406;45.602;11.904;2022-12-04T03:18:49;12.50;90.90
59572;DHT22;59406;45.602;11.904;2022-12-04T03:21:21;12.50;91.00
59572;DHT22;59406;45.602;11.904;2022-12-04T03:23:54;12.50;90.80
59572;DHT22;59406;45.602;11.904;2022-12-04T03:26:30;12.40;90.60
59572;DHT22;59406;45.602;11.904;2022-12-04T03:31:50;12.40;91.10
59572;DHT22;59406;45.602;11.904;2022-12-04T03:34:32;12.40;91.20
59572;DHT22;59406;45.602;11.904;2022-12-04T03:37:11;12.50;91.30
59572;DHT22;59406;45.602;11.904;2022-12-04T03:42:29;12.20;91.70
59572;DHT22;59406;45.602;11.904;2022-12-04T03:45:07;12.10;91.80
59572;DHT22;59406;45.602;11.904;2022-12-04T03:48:02;12.40;91.80
59572;DHT22;59406;45.602;11.904;2022-12-04T03:53:14;12.20;92.30
59572;DHT22;59406;45.602;11.904;2022-12-04T03:58:27;12.00;92.30
59572;DHT22;59406;45.602;11.904;2022-12-04T04:00:56;12.00;92.30
59572;DHT22;59406;45.602;11.904;2022-12-04T04:03:28;12.00;92.50
59572;DHT22;59406;45.602;11.904;2022-12-04T04:06:02;12.00;92.60
59572;DHT22;59406;45.602;11.904;2022-12-04T04:08:32;11.90;92.40
59572;DHT22;59406;45.602;11.904;2022-12-04T04:11:17;11.80;92.70
59572;DHT22;59406;45.602;11.904;2022-12-04T04:13:51;11.80;92.50
59572;DHT22;59406;45.602;11.904;2022-12-04T04:16:39;11.80;92.70
59572;DHT22;59406;45.602;11.904;2022-12-04T04:19:27;11.80;92.60
59572;DHT22;59406;45.602;11.904;2022-12-04T04:22:14;11.70;92.80
59572;DHT22;59406;45.602;11.904;2022-12-04T04:25:10;11.60;92.80
59572;DHT22;59406;45.602;11.904;2022-12-04T04:27:36;11.50;93.00
59572;DHT22;59406;45.602;11.904;2022-12-04T04:30:06;11.60;93.10
59572;DHT22;59406;45.602;11.904;2022-12-04T04:32:51;11.50;93.00
59572;DHT22;59406;45.602;11.904;2022-12-04T04:35:24;11.60;92.50
59572;DHT22;59406;45.602;11.904;2022-12-04T04:41:14;11.50;91.80
59572;DHT22;59406;45.602;11.904;2022-12-04T04:43:50;11.30;91.30
59572;DHT22;59406;45.602;11.904;2022-12-04T04:46:28;11.30;91.90
59572;DHT22;59406;45.602;11.904;2022-12-04T04:48:59;11.40;92.00
59572;DHT22;59406;45.602;11.904;2022-12-04T04:51:27;11.30;91.90
59572;DHT22;59406;45.602;11.904;2022-12-04T04:53:58;11.30;91.80
59572;DHT22;59406;45.602;11.904;2022-12-04T04:56:25;11.20;91.90
59572;DHT22;59406;45.602;11.904;2022-12-04T04:58:51;11.10;92.00
59572;DHT22;59406;45.602;11.904;2022-12-04T05:01:19;11.20;91.90
59572;DHT22;59406;45.602;11.904;2022-12-04T05:03:47;11.10;91.80
59572;DHT22;59406;45.602;11.904;2022-12-04T05:06:13;11.00;91.70
59572;DHT22;59406;45.602;11.904;2022-12-04T05:08:39;11.10;91.60
59572;DHT22;59406;45.602;11.904;2022-12-04T05:11:09;11.10;91.50
59572;DHT22;59406;45.602;11.904;2022-12-04T05:13:36;11.10;91.30
59572;DHT22;59406;45.602;11.904;2022-12-04T05:16:04;11.10;91.20
59572;DHT22;59406;45.602;11.904;2022-12-04T05:18:32;11.20;91.50
59572;DHT22;59406;45.602;11.904;2022-12-04T05:20:58;11.10;91.60
59572;DHT22;59406;45.602;11.904;2022-12-04T05:23:24;11.00;91.70
59572;DHT22;59406;45.602;11.904;2022-12-04T05:25:50;11.00;91.80
59572;DHT22;59406;45.602;11.904;2022-12-04T05:28:23;11.00;91.90
59572;DHT22;59406;45.602;11.904;2022-12-04T05:30:59;11.00;91.80
59572;DHT22;59406;45.602;11.904;2022-12-04T05:33:26;10.90;92.30
59572;DHT22;59406;45.602;11.904;2022-12-04T05:36:00;11.00;92.50
59572;DHT22;59406;45.602;11.904;2022-12-04T05:38:27;10.90;92.80
59572;DHT22;59406;45.602;11.904;2022-12-04T05:40:53;10.80;92.90
59572;DHT22;59406;45.602;11.904;2022-12-04T05:43:19;10.80;93.10
59572;DHT22;59406;45.602;11.904;2022-12-04T05:45:45;10.80;93.50
59572;DHT22;59406;45.602;11.904;2022-12-04T05:48:11;10.80;93.80
59572;DHT22;59406;45.602;11.904;2022-12-04T05:50:40;10.70;93.90
59572;DHT22;59406;45.602;11.904;2022-12-04T05:53:06;10.60;94.30
59572;DHT22;59406;45.602;11.904;2022-12-04T05:55:32;10.60;94.70
59572;DHT22;59406;45.602;11.904;2022-12-04T05:57:59;10.60;94.90
59572;DHT22;59406;45.602;11.904;2022-12-04T06:00:25;10.60;95.10
59572;DHT22;59406;45.602;11.904;2022-12-04T06:02:51;10.40;95.40
59572;DHT22;59406;45.602;11.904;2022-12-04T06:05:17;10.50;95.50
59572;DHT22;59406;45.602;11.904;2022-12-04T06:07:43;10.50;95.50
59572;DHT22;59406;45.602;11.904;2022-12-04T06:10:09;10.40;95.90
59572;DHT22;59406;45.602;11.904;2022-12-04T06:12:35;10.40;96.00
59572;DHT22;59406;45.602;11.904;2022-12-04T06:15:01;10.40;96.30
59572;DHT22;59406;45.602;11.904;2022-12-04T06:17:26;10.40;96.60
59572;DHT22;59406;45.602;11.904;2022-12-04T06:19:52;10.40;96.50
59572;DHT22;59406;45.602;11.904;2022-12-04T06:22:20;10.50;96.30
59572;DHT22;59406;45.602;11.904;2022-12-04T06:24:47;10.50;96.40
59572;DHT22;59406;45.602;11.904;2022-12-04T06:27:13;10.50;96.60
59572;DHT22;59406;45.602;11.904;2022-12-04T06:29:39;10.50;96.60
59572;DHT22;59406;45.602;11.904;2022-12-04T06:32:05;10.50;96.70
59572;DHT22;59406;45.602;11.904;2022-12-04T06:34:31;10.50;96.70
59572;DHT22;59406;45.602;11.904;2022-12-04T06:36:57;10.60;96.50
59572;DHT22;59406;45.602;11.904;2022-12-04T06:39:23;10.60;96.40
59572;DHT22;59406;45.602;11.904;2022-12-04T06:41:49;10.60;96.50
59572;DHT22;59406;45.602;11.904;2022-12-04T06:44:15;10.60;96.50
59572;DHT22;59406;45.602;11.904;2022-12-04T06:46:41;10.60;96.50
59572;DHT22;59406;45.602;11.904;2022-12-04T06:49:09;10.70;96.50
59572;DHT22;59406;45.602;11.904;2022-12-04T06:51:36;10.70;96.60
59572;DHT22;59406;45.602;11.904;2022-12-04T06:54:04;10.60;96.80
59572;DHT22;59406;45.602;11.904;2022-12-04T06:56:32;10.70;96.70
59572;DHT22;59406;45.602;11.904;2022-12-04T06:59:01;10.70;96.60
59572;DHT22;59406;45.602;11.904;2022-12-04T07:01:30;10.80;96.90
59572;DHT22;59406;45.602;11.904;2022-12-04T07:03:57;10.60;96.90
59572;DHT22;59406;45.602;11.904;2022-12-04T07:06:26;10.70;97.10
59572;DHT22;59406;45.602;11.904;2022-12-04T07:09:10;10.70;97.20
59572;DHT22;59406;45.602;11.904;2022-12-04T07:11:37;10.70;97.10
59572;DHT22;59406;45.602;11.904;2022-12-04T07:16:29;10.80;97.20
59572;DHT22;59406;45.602;11.904;2022-12-04T07:18:56;10.70;97.10
59572;DHT22;59406;45.602;11.904;2022-12-04T07:21:25;10.80;97.40
59572;DHT22;59406;45.602;11.904;2022-12-04T07:23:54;10.80;97.30
59572;DHT22;59406;45.602;11.904;2022-12-04T07:26:21;10.80;97.20
59572;DHT22;59406;45.602;11.904;2022-12-04T07:28:48;10.80;97.30
59572;DHT22;59406;45.602;11.904;2022-12-04T07:31:17;10.80;97.70
59572;DHT22;59406;45.602;11.904;2022-12-04T07:33:44;10.70;97.90
59572;DHT22;59406;45.602;11.904;2022-12-04T07:36:13;10.80;97.70
59572;DHT22;59406;45.602;11.904;2022-12-04T07:38:40;10.80;97.60
59572;DHT22;59406;45.602;11.904;2022-12-04T07:41:07;10.90;97.50
59572;DHT22;59406;45.602;11.904;2022-12-04T07:43:33;10.90;97.60
59572;DHT22;59406;45.602;11.904;2022-12-04T07:46:05;10.90;97.60
59572;DHT22;59406;45.602;11.904;2022-12-04T07:48:32;10.90;97.50
59572;DHT22;59406;45.602;11.904;2022-12-04T07:51:14;10.90;97.50
59572;DHT22;59406;45.602;11.904;2022-12-04T07:53:40;10.90;97.50
59572;DHT22;59406;45.602;11.904;2022-12-04T07:56:07;11.00;97.30
59572;DHT22;59406;45.602;11.904;2022-12-04T07:58:34;10.90;97.20
59572;DHT22;59406;45.602;11.904;2022-12-04T08:01:13;10.90;97.30
59572;DHT22;59406;45.602;11.904;2022-12-04T08:03:40;10.90;97.30
59572;DHT22;59406;45.602;11.904;2022-12-04T08:06:07;10.90;97.20
59572;DHT22;59406;45.602;11.904;2022-12-04T08:08:34;11.00;97.40
59572;DHT22;59406;45.602;11.904;2022-12-04T08:11:08;10.90;97.30
59572;DHT22;59406;45.602;11.904;2022-12-04T08:13:34;11.00;97.50
59572;DHT22;59406;45.602;11.904;2022-12-04T08:16:05;11.00;97.20
59572;DHT22;59406;45.602;11.904;2022-12-04T08:18:31;11.10;97.30
59572;DHT22;59406;45.602;11.904;2022-12-04T08:21:12;11.20;97.10
59572;DHT22;59406;45.602;11.904;2022-12-04T08:23:39;11.20;96.90
59572;DHT22;59406;45.602;11.904;2022-12-04T08:26:06;11.30;96.70
59572;DHT22;59406;45.602;11.904;2022-12-04T08:28:32;11.30;96.60
59572;DHT22;59406;45.602;11.904;2022-12-04T08:31:11;11.40;96.50
59572;DHT22;59406;45.602;11.904;2022-12-04T08:33:37;11.40;96.30
59572;DHT22;59406;45.602;11.904;2022-12-04T08:36:08;11.40;96.20
59572;DHT22;59406;45.602;11.904;2022-12-04T08:38:35;11.60;96.10
59572;DHT22;59406;45.602;11.904;2022-12-04T08:41:03;11.50;95.80
59572;DHT22;59406;45.602;11.904;2022-12-04T08:43:29;11.60;95.80
59572;DHT22;59406;45.602;11.904;2022-12-04T08:46:00;11.60;95.20
59572;DHT22;59406;45.602;11.904;2022-12-04T08:48:27;11.50;95.10
59572;DHT22;59406;45.602;11.904;2022-12-04T08:50:55;11.60;94.90
59572;DHT22;59406;45.602;11.904;2022-12-04T08:53:21;11.70;94.90
59572;DHT22;59406;45.602;11.904;2022-12-04T08:55:48;11.70;94.40
59572;DHT22;59406;45.602;11.904;2022-12-04T08:58:15;11.80;94.50
59572;DHT22;59406;45.602;11.904;2022-12-04T09:00:42;11.90;94.40
59572;DHT22;59406;45.602;11.904;2022-12-04T09:03:12;11.70;94.30
59572;DHT22;59406;45.602;11.904;2022-12-04T09:05:38;11.60;94.80
59572;DHT22;59406;45.602;11.904;2022-12-04T09:08:13;11.60;94.90
59572;DHT22;59406;45.602;11.904;2022-12-04T09:10:39;11.50;95.00
59572;DHT22;59406;45.602;11.904;2022-12-04T09:13:06;11.60;94.80
59572;DHT22;59406;45.602;11.904;2022-12-04T09:15:32;11.70;94.70
59572;DHT22;59406;45.602;11.904;2022-12-04T09:17:58;11.90;94.80
59572;DHT22;59406;45.602;11.904;2022-12-04T09:20:24;11.90;94.70
59572;DHT22;59406;45.602;11.904;2022-12-04T09:22:50;12.00;94.40
59572;DHT22;59406;45.602;11.904;2022-12-04T09:25:17;11.90;93.50
59572;DHT22;59406;45.602;11.904;2022-12-04T09:27:43;11.80;94.00
59572;DHT22;59406;45.602;11.904;2022-12-04T09:30:11;11.60;93.50
59572;DHT22;59406;45.602;11.904;2022-12-04T09:32:37;11.70;94.00
59572;DHT22;59406;45.602;11.904;2022-12-04T09:35:05;11.70;93.40
59572;DHT22;59406;45.602;11.904;2022-12-04T09:37:32;11.50;93.50
59572;DHT22;59406;45.602;11.904;2022-12-04T09:39:58;11.60;93.60
59572;DHT22;59406;45.602;11.904;2022-12-04T09:42:34;11.80;93.70
59572;DHT22;59406;45.602;11.904;2022-12-04T09:45:12;11.90;93.40
59572;DHT22;59406;45.602;11.904;2022-12-04T09:47:42;11.90;93.40
59572;DHT22;59406;45.602;11.904;2022-12-04T09:50:22;11.70;93.20
59572;DHT22;59406;45.602;11.904;2022-12-04T09:55:27;12.30;93.10
59572;DHT22;59406;45.602;11.904;2022-12-04T09:57:56;12.30;92.30
59572;DHT22;59406;45.602;11.904;2022-12-04T10:00:24;12.50;92.60
59572;DHT22;59406;45.602;11.904;2022-12-04T10:03:02;12.60;92.70
59572;DHT22;59406;45.602;11.904;2022-12-04T10:08:19;12.90;90.70
59572;DHT22;59406;45.602;11.904;2022-12-04T10:11:04;12.80;90.70
59572;DHT22;59406;45.602;11.904;2022-12-04T10:13:39;12.70;90.60
59572;DHT22;59406;45.602;11.904;2022-12-04T10:24:55;12.40;92.60
59572;DHT22;59406;45.602;11.904;2022-12-04T10:27:29;12.30;92.90
59572;DHT22;59406;45.602;11.904;2022-12-04T10:30:21;12.30;92.60
59572;DHT22;59406;45.602;11.904;2022-12-04T10:33:04;11.90;93.00
59572;DHT22;59406;45.602;11.904;2022-12-04T10:35:36;12.00;92.90
59572;DHT22;59406;45.602;11.904;2022-12-04T10:38:08;11.80;92.40
59572;DHT22;59406;45.602;11.904;2022-12-04T10:40:58;11.80;92.50
59572;DHT22;59406;45.602;11.904;2022-12-04T10:43:42;12.00;92.50
59572;DHT22;59406;45.602;11.904;2022-12-04T10:46:15;12.00;92.30
59572;DHT22;59406;45.602;11.904;2022-12-04T10:48:45;12.00;92.30
59572;DHT22;59406;45.602;11.904;2022-12-04T10:51:15;11.90;92.20
59572;DHT22;59406;45.602;11.904;2022-12-04T10:53:41;11.90;92.60
59572;DHT22;59406;45.602;11.904;2022-12-04T10:58:57;12.10;92.70
59572;DHT22;59406;45.602;11.904;2022-12-04T11:01:24;12.10;92.60
59572;DHT22;59406;45.602;11.904;2022-12-04T11:03:56;12.40;92.30
59572;DHT22;59406;45.602;11.904;2022-12-04T11:06:25;12.50;92.40
59572;DHT22;59406;45.602;11.904;2022-12-04T11:08:52;12.60;92.30
59572;DHT22;59406;45.602;11.904;2022-12-04T11:11:33;12.40;92.00
59572;DHT22;59406;45.602;11.904;2022-12-04T11:14:06;12.30;92.00
59572;DHT22;59406;45.602;11.904;2022-12-04T11:16:38;12.20;92.10
59572;DHT22;59406;45.602;11.904;2022-12-04T11:19:26;12.10;92.00
59572;DHT22;59406;45.602;11.904;2022-12-04T11:21:56;12.20;92.30
59572;DHT22;59406;45.602;11.904;2022-12-04T11:24:35;12.30;92.40
59572;DHT22;59406;45.602;11.904;2022-12-04T11:27:04;12.20;92.20
59572;DHT22;59406;45.602;11.904;2022-12-04T11:29:35;12.30;92.00
59572;DHT22;59406;45.602;11.904;2022-12-04T11:32:02;12.10;92.10
59572;DHT22;59406;45.602;11.904;2022-12-04T11:34:38;12.00;92.60
59572;DHT22;59406;45.602;11.904;2022-12-04T11:37:14;12.20;92.50
59572;DHT22;59406;45.602;11.904;2022-12-04T11:39:44;12.00;92.30
59572;DHT22;59406;45.602;11.904;2022-12-04T11:42:27;11.80;92.00
59572;DHT22;59406;45.602;11.904;2022-12-04T11:44:59;11.70;92.20
59572;DHT22;59406;45.602;11.904;2022-12-04T11:47:29;11.80;92.30
59572;DHT22;59406;45.602;11.904;2022-12-04T11:50:17;11.50;92.40
59572;DHT22;59406;45.602;11.904;2022-12-04T12:01:27;11.50;92.30
59572;DHT22;59406;45.602;11.904;2022-12-04T12:09:22;11.30;92.60
59572;DHT22;59406;45.602;11.904;2022-12-04T12:14:58;11.30;93.20
59572;DHT22;59406;45.602;11.904;2022-12-04T12:20:24;11.40;93.50
59572;DHT22;59406;45.602;11.904;2022-12-04T12:23:15;11.30;93.60
59572;DHT22;59406;45.602;11.904;2022-12-04T12:28:25;11.20;93.90
59572;DHT22;59406;45.602;11.904;2022-12-04T12:33:33;11.20;94.20
59572;DHT22;59406;45.602;11.904;2022-12-04T12:36:11;11.10;94.40
59572;DHT22;59406;45.602;11.904;2022-12-04T12:38:45;11.10;94.80
59572;DHT22;59406;45.602;11.904;2022-12-04T12:43:41;11.10;95.00
59572;DHT22;59406;45.602;11.904;2022-12-04T12:49:01;11.00;94.90
59572;DHT22;59406;45.602;11.904;2022-12-04T12:52:01;11.10;94.70
59572;DHT22;59406;45.602;11.904;2022-12-04T12:54:36;11.20;94.70
59572;DHT22;59406;45.602;11.904;2022-12-04T12:57:19;11.10;94.70
59572;DHT22;59406;45.602;11.904;2022-12-04T13:05:59;11.10;94.90
59572;DHT22;59406;45.602;11.904;2022-12-04T13:08:31;11.10;95.10
59572;DHT22;59406;45.602;11.904;2022-12-04T13:13:57;11.20;95.20
59572;DHT22;59406;45.602;11.904;2022-12-04T13:16:27;11.20;95.10
59572;DHT22;59406;45.602;11.904;2022-12-04T13:27:45;11.10;95.50
59572;DHT22;59406;45.602;11.904;2022-12-04T13:30:23;11.20;95.60
59572;DHT22;59406;45.602;11.904;2022-12-04T13:38:52;11.30;95.30
59572;DHT22;59406;45.602;11.904;2022-12-04T13:41:23;11.40;95.40
59572;DHT22;59406;45.602;11.904;2022-12-04T13:43:51;11.50;95.10
59572;DHT22;59406;45.602;11.904;2022-12-04T13:46:33;11.40;95.10
59572;DHT22;59406;45.602;11.904;2022-12-04T13:49:19;11.40;95.30
59572;DHT22;59406;45.602;11.904;2022-12-04T13:51:50;11.70;95.20
59572;DHT22;59406;45.602;11.904;2022-12-04T13:56:48;11.80;95.00
59572;DHT22;59406;45.602;11.904;2022-12-04T14:01:57;12.10;94.60
59572;DHT22;59406;45.602;11.904;2022-12-04T14:06:51;11.50;94.60
59572;DHT22;59406;45.602;11.904;2022-12-04T14:09:24;11.50;94.70
59572;DHT22;59406;45.602;11.904;2022-12-04T14:11:56;11.50;94.80
59572;DHT22;59406;45.602;11.904;2022-12-04T14:14:25;11.30;95.00
59572;DHT22;59406;45.602;11.904;2022-12-04T14:16:54;11.40;94.90
59572;DHT22;59406;45.602;11.904;2022-12-04T14:19:28;11.60;95.00
59572;DHT22;59406;45.602;11.904;2022-12-04T14:21:56;11.30;94.40
59572;DHT22;59406;45.602;11.904;2022-12-04T14:24:34;11.40;94.80
59572;DHT22;59406;45.602;11.904;2022-12-04T14:27:28;11.50;94.80
59572;DHT22;59406;45.602;11.904;2022-12-04T14:29:56;11.50;94.40
59572;DHT22;59406;45.602;11.904;2022-12-04T14:32:30;11.40;94.40
59572;DHT22;59406;45.602;11.904;2022-12-04T14:34:56;11.40;94.60
59572;DHT22;59406;45.602;11.904;2022-12-04T14:37:35;11.40;94.50
59572;DHT22;59406;45.602;11.904;2022-12-04T14:40:04;11.40;94.50
59572;DHT22;59406;45.602;11.904;2022-12-04T14:42:38;11.40;94.50
59572;DHT22;59406;45.602;11.904;2022-12-04T14:53:47;11.40;94.50
59572;DHT22;59406;45.602;11.904;2022-12-04T14:58:49;11.50;94.20
59572;DHT22;59406;45.602;11.904;2022-12-04T15:01:28;11.50;94.10
59572;DHT22;59406;45.602;11.904;2022-12-04T15:04:04;11.40;94.30
59572;DHT22;59406;45.602;11.904;2022-12-04T15:06:32;11.50;94.40
59572;DHT22;59406;45.602;11.904;2022-12-04T15:09:02;11.40;94.50
59572;DHT22;59406;45.602;11.904;2022-12-04T15:11:54;11.50;94.30
59572;DHT22;59406;45.602;11.904;2022-12-04T15:14:48;11.60;94.40
59572;DHT22;59406;45.602;11.904;2022-12-04T15:17:16;11.70;94.30
59572;DHT22;59406;45.602;11.904;2022-12-04T15:19:43;11.60;94.10
59572;DHT22;59406;45.602;11.904;2022-12-04T15:22:29;11.60;94.00
59572;DHT22;59406;45.602;11.904;2022-12-04T15:24:55;11.50;94.10
59572;DHT22;59406;45.602;11.904;2022-12-04T15:27:24;11.50;94.10
59572;DHT22;59406;45.602;11.904;2022-12-04T15:29:51;11.50;94.30
59572;DHT22;59406;45.602;11.904;2022-12-04T15:32:21;11.60;94.10
59572;DHT22;59406;45.602;11.904;2022-12-04T15:34:54;11.50;93.90
59572;DHT22;59406;45.602;11.904;2022-12-04T15:37:27;11.60;93.90
59572;DHT22;59406;45.602;11.904;2022-12-04T15:39:54;11.50;93.60
59572;DHT22;59406;45.602;11.904;2022-12-04T15:50:09;11.50;93.80
59572;DHT22;59406;45.602;11.904;2022-12-04T15:52:36;11.60;93.70
59572;DHT22;59406;45.602;11.904;2022-12-04T15:55:06;11.50;93.80
59572;DHT22;59406;45.602;11.904;2022-12-04T15:57:38;11.50;93.80
59572;DHT22;59406;45.602;11.904;2022-12-04T16:00:30;11.40;93.80
59572;DHT22;59406;45.602;11.904;2022-12-04T16:02:54;11.50;93.60
59572;DHT22;59406;45.602;11.904;2022-12-04T16:07:55;11.40;94.00
59572;DHT22;59406;45.602;11.904;2022-12-04T16:10:27;11.40;94.10
59572;DHT22;59406;45.602;11.904;2022-12-04T16:13:03;11.30;94.10
59572;DHT22;59406;45.602;11.904;2022-12-04T16:15:40;11.40;94.00
59572;DHT22;59406;45.602;11.904;2022-12-04T16:18:10;11.50;93.90
59572;DHT22;59406;45.602;11.904;2022-12-04T16:20:38;11.40;94.00
59572;DHT22;59406;45.602;11.904;2022-12-04T16:23:05;11.40;93.90
59572;DHT22;59406;45.602;11.904;2022-12-04T16:25:31;11.40;94.20
59572;DHT22;59406;45.602;11.904;2022-12-04T16:27:58;11.30;94.30
59572;DHT22;59406;45.602;11.904;2022-12-04T16:30:25;11.30;94.40
59572;DHT22;59406;45.602;11.904;2022-12-04T16:32:52;11.50;94.10
59572;DHT22;59406;45.602;11.904;2022-12-04T16:35:19;11.20;94.10
59572;DHT22;59406;45.602;11.904;2022-12-04T16:37:46;11.30;94.50
59572;DHT22;59406;45.602;11.904;2022-12-04T16:40:13;11.30;94.50
59572;DHT22;59406;45.602;11.904;2022-12-04T16:42:40;11.30;94.60
59572;DHT22;59406;45.602;11.904;2022-12-04T16:47:50;11.30;94.70
59572;DHT22;59406;45.602;11.904;2022-12-04T16:50:16;11.30;94.60
59572;DHT22;59406;45.602;11.904;2022-12-04T16:52:42;11.30;94.70
59572;DHT22;59406;45.602;11.904;2022-12-04T16:55:18;11.30;94.60
59572;DHT22;59406;45.602;11.904;2022-12-04T16:57:44;11.30;94.40
59572;DHT22;59406;45.602;11.904;2022-12-04T17:00:15;11.40;94.40
59572;DHT22;59406;45.602;11.904;2022-12-04T17:02:42;11.30;94.30
59572;DHT22;59406;45.602;11.904;2022-12-04T17:05:18;11.30;94.60
59572;DHT22;59406;45.602;11.904;2022-12-04T17:07:44;11.20;94.40
59572;DHT22;59406;45.602;11.904;2022-12-04T17:10:10;11.30;94.50
59572;DHT22;59406;45.602;11.904;2022-12-04T17:12:38;11.30;94.40
59572;DHT22;59406;45.602;11.904;2022-12-04T17:15:05;11.40;94.30
59572;DHT22;59406;45.602;11.904;2022-12-04T17:17:31;11.50;94.30
59572;DHT22;59406;45.602;11.904;2022-12-04T17:19:57;11.50;94.30
59572;DHT22;59406;45.602;11.904;2022-12-04T17:22:23;11.40;94.20
59572;DHT22;59406;45.602;11.904;2022-12-04T17:24:55;11.40;94.10
59572;DHT22;59406;45.602;11.904;2022-12-04T17:27:22;11.40;94.20
59572;DHT22;59406;45.602;11.904;2022-12-04T17:29:49;11.40;94.20
59572;DHT22;59406;45.602;11.904;2022-12-04T17:32:15;11.50;94.20
59572;DHT22;59406;45.602;11.904;2022-12-04T17:34:41;11.40;94.10
59572;DHT22;59406;45.602;11.904;2022-12-04T17:37:06;11.40;94.30
59572;DHT22;59406;45.602;11.904;2022-12-04T17:39:33;11.40;94.30
59572;DHT22;59406;45.602;11.904;2022-12-04T17:41:59;11.40;94.30
59572;DHT22;59406;45.602;11.904;2022-12-04T17:44:25;11.40;94.20
59572;DHT22;59406;45.602;11.904;2022-12-04T17:46:50;11.30;94.30
59572;DHT22;59406;45.602;11.904;2022-12-04T17:49:18;11.30;94.20
59572;DHT22;59406;45.602;11.904;2022-12-04T17:51:44;11.30;94.40
59572;DHT22;59406;45.602;11.904;2022-12-04T17:54:10;11.30;94.50